createdAt,value
2018-11-07T00:00:48.503Z,3.53
2018-11-07T00:05:52.542Z,4.40
2018-11-07T00:10:56.886Z,4.73
2018-11-07T00:16:00.481Z,4.60
2018-11-07T00:21:04.995Z,3.73
2018-11-07T00:26:08.902Z,3.40
2018-11-07T00:31:16.068Z,3.43
2018-11-07T00:36:19.685Z,3.90
2018-11-07T00:41:23.873Z,4.47
2018-11-07T00:46:27.656Z,4.43
2018-11-07T00:51:31.433Z,4.43
2018-11-07T00:56:35.038Z,5.10
2018-11-07T01:01:38.590Z,4.83
2018-11-07T01:06:42.170Z,4.67
2018-11-07T01:11:46.743Z,4.37
2018-11-07T01:16:50.408Z,4.50
2018-11-07T01:21:53.945Z,5.40
2018-11-07T01:26:57.767Z,5.13
2018-11-07T01:32:02.161Z,4.70
2018-11-07T01:37:05.803Z,5.37
2018-11-07T01:42:09.530Z,5.30
2018-11-07T01:47:12.988Z,4.33
2018-11-07T01:52:16.609Z,4.47
2018-11-07T01:57:20.188Z,5.00
2018-11-07T02:02:24.056Z,5.60
2018-11-07T02:07:27.659Z,5.10
2018-11-07T02:12:36.092Z,4.90
2018-11-07T02:17:40.117Z,5.30
2018-11-07T02:22:44.523Z,5.03
2018-11-07T02:27:48.136Z,5.73
2018-11-07T02:32:52.067Z,4.90
2018-11-07T02:37:56.125Z,4.80
2018-11-07T02:42:59.924Z,4.93
2018-11-07T02:48:03.951Z,5.37
2018-11-07T02:53:08.504Z,6.93
2018-11-07T02:58:12.440Z,6.20
2018-11-07T03:03:16.042Z,6.57
2018-11-07T03:08:19.923Z,7.27
2018-11-07T03:13:24.626Z,7.10
2018-11-07T03:18:29.273Z,5.70
2018-11-07T03:23:32.917Z,5.53
2018-11-07T03:28:37.035Z,6.67
2018-11-07T03:33:40.736Z,6.10
2018-11-07T03:38:44.452Z,6.20
2018-11-07T03:43:48.888Z,6.27
2018-11-07T03:48:52.611Z,5.53
2018-11-07T03:53:56.200Z,6.77
2018-11-07T03:58:59.939Z,7.90
2018-11-07T04:04:03.589Z,6.80
2018-11-07T04:09:10.890Z,5.90
2018-11-07T04:14:14.479Z,6.93
2018-11-07T04:19:18.032Z,8.00
2018-11-07T04:24:21.895Z,8.87
2018-11-07T04:29:25.915Z,9.60
2018-11-07T04:34:30.640Z,8.77
2018-11-07T04:39:48.909Z,7.90
2018-11-07T04:44:52.663Z,8.00
2018-11-07T04:49:56.477Z,8.13
2018-11-07T04:55:05.721Z,6.80
2018-11-07T05:00:12.310Z,7.73
2018-11-07T05:05:16.340Z,7.40
2018-11-07T05:10:20.677Z,6.40
2018-11-07T05:15:27.002Z,7.77
2018-11-07T05:20:30.695Z,7.00
2018-11-07T05:25:34.567Z,7.23
2018-11-07T05:30:38.875Z,7.03
2018-11-07T05:35:42.683Z,7.90
2018-11-07T05:40:46.322Z,8.47
2018-11-07T05:45:49.939Z,6.63
2018-11-07T05:50:53.659Z,6.63
2018-11-07T05:55:57.243Z,7.30
2018-11-07T06:01:03.097Z,8.93
2018-11-07T06:06:06.715Z,7.77
2018-11-07T06:11:10.545Z,8.27
2018-11-07T06:16:14.247Z,7.87
2018-11-07T06:21:17.799Z,8.20
2018-11-07T06:26:21.356Z,8.83
2018-11-07T06:31:25.007Z,9.77
2018-11-07T06:36:29.256Z,7.37
2018-11-07T06:41:32.831Z,8.57
2018-11-07T06:46:36.411Z,9.40
2018-11-07T06:51:40.014Z,7.90
2018-11-07T06:56:43.622Z,9.67
2018-11-07T07:01:47.232Z,8.73
2018-11-07T07:06:50.842Z,8.30
2018-11-07T07:11:54.666Z,8.13
2018-11-07T07:16:58.196Z,7.97
2018-11-07T07:22:02.047Z,9.40
2018-11-07T07:27:05.821Z,8.47
2018-11-07T07:32:09.663Z,9.43
2018-11-07T07:37:13.469Z,10.00
2018-11-07T07:42:17.295Z,11.83
2018-11-07T07:47:20.883Z,12.40
2018-11-07T07:52:24.482Z,11.50
2018-11-07T07:57:28.075Z,10.70
2018-11-07T08:02:31.708Z,11.00
2018-11-07T08:07:35.605Z,10.50
2018-11-07T08:12:39.213Z,8.80
2018-11-07T08:17:43.605Z,13.97
2018-11-07T08:22:48.341Z,10.90
2018-11-07T08:27:51.981Z,11.30
2018-11-07T08:32:56.468Z,12.50
2018-11-07T08:38:00.111Z,11.43
2018-11-07T08:43:04.173Z,13.97
2018-11-07T08:48:08.499Z,14.70
2018-11-07T08:53:12.175Z,13.60
2018-11-07T08:58:16.868Z,13.97
2018-11-07T09:03:20.501Z,13.90
2018-11-07T09:08:24.056Z,14.97
2018-11-07T09:13:28.016Z,13.43
2018-11-07T09:18:31.611Z,12.97
2018-11-07T09:23:35.255Z,12.50
2018-11-07T09:28:38.884Z,11.40
2018-11-07T09:33:42.501Z,11.27
2018-11-07T09:38:46.762Z,9.87
2018-11-07T09:43:51.443Z,9.23
2018-11-07T09:48:55.062Z,9.00
2018-11-07T09:53:59.129Z,9.27
2018-11-07T09:59:02.981Z,8.40
2018-11-07T10:04:06.888Z,7.73
2018-11-07T10:09:11.542Z,7.57
2018-11-07T10:14:15.092Z,8.13
2018-11-07T10:19:18.708Z,7.80
2018-11-07T10:24:22.281Z,8.77
2018-11-07T10:29:26.416Z,8.07
2018-11-07T10:34:29.646Z,7.97
2018-11-07T10:39:33.269Z,8.97
2018-11-07T10:44:36.868Z,8.33
2018-11-07T10:49:40.480Z,7.70
2018-11-07T10:54:44.288Z,7.87
2018-11-07T10:59:47.925Z,8.53
2018-11-07T11:04:51.560Z,8.50
2018-11-07T11:09:55.215Z,9.10
2018-11-07T11:14:58.791Z,8.47
2018-11-07T11:20:02.447Z,7.70
2018-11-07T11:25:07.409Z,7.70
2018-11-07T11:30:11.439Z,8.03
2018-11-07T11:35:21.747Z,8.30
2018-11-07T11:40:26.046Z,7.83
2018-11-07T11:45:30.464Z,7.17
2018-11-07T11:50:33.752Z,6.90
2018-11-07T11:55:37.319Z,8.40
2018-11-07T12:00:41.171Z,7.70
2018-11-07T12:05:44.722Z,9.13
2018-11-07T12:10:49.027Z,8.20
2018-11-07T12:15:52.611Z,7.70
2018-11-07T12:20:56.157Z,7.40
2018-11-07T12:25:59.708Z,8.23
2018-11-07T12:31:03.289Z,8.17
2018-11-07T12:36:06.932Z,8.70
2018-11-07T12:41:10.242Z,8.47
2018-11-07T12:46:13.800Z,8.20
2018-11-07T12:51:18.230Z,7.90
2018-11-07T12:56:22.452Z,7.20
2018-11-07T13:01:30.908Z,9.93
2018-11-07T13:06:36.392Z,7.70
2018-11-07T13:11:41.415Z,7.60
2018-11-07T13:16:45.368Z,7.70
2018-11-07T13:21:49.507Z,7.77
2018-11-07T13:26:53.210Z,7.00
2018-11-07T13:31:56.784Z,7.30
2018-11-07T13:37:00.186Z,7.00
2018-11-07T13:42:03.757Z,8.10
2018-11-07T13:47:07.329Z,7.70
2018-11-07T13:52:11.210Z,7.17
2018-11-07T13:57:14.794Z,7.93
2018-11-07T14:02:18.377Z,8.00
2018-11-07T14:07:22.339Z,7.83
2018-11-07T14:12:26.223Z,7.13
2018-11-07T14:17:29.855Z,8.90
2018-11-07T14:22:33.410Z,8.50
2018-11-07T14:27:37.204Z,7.80
2018-11-07T14:32:57.126Z,9.30
2018-11-07T14:38:00.729Z,7.57
2018-11-07T14:43:04.524Z,8.90
2018-11-07T14:48:08.115Z,9.03
2018-11-07T14:53:11.763Z,8.43
2018-11-07T14:58:15.335Z,8.30
2018-11-07T15:03:22.610Z,8.67
2018-11-07T15:08:27.312Z,8.07
2018-11-07T15:13:30.915Z,9.37
2018-11-07T15:18:34.619Z,9.47
2018-11-07T15:23:38.243Z,16.93
2018-11-07T15:28:42.337Z,9.50
2018-11-07T15:33:45.983Z,8.90
2018-11-07T15:38:49.574Z,8.90
2018-11-07T15:43:53.176Z,8.80
2018-11-07T15:48:56.796Z,8.97
2018-11-07T15:54:00.663Z,8.57
2018-11-07T15:59:05.831Z,8.57
2018-11-07T16:04:09.636Z,7.03
2018-11-07T16:09:13.216Z,7.40
2018-11-07T16:14:16.871Z,8.03
2018-11-07T16:19:20.552Z,6.87
2018-11-07T16:24:24.804Z,7.20
2018-11-07T16:29:28.473Z,8.43
2018-11-07T16:34:32.122Z,6.87
2018-11-07T16:39:37.457Z,6.10
2018-11-07T16:44:41.042Z,12.20
2018-11-07T16:49:45.419Z,10.53
2018-11-07T16:54:49.044Z,7.70
2018-11-07T17:00:55.708Z,12.30
2018-11-07T17:05:59.436Z,9.30
2018-11-07T17:11:03.228Z,7.83
2018-11-07T17:16:07.020Z,7.27
2018-11-07T17:21:11.512Z,8.43
2018-11-07T17:26:17.044Z,12.13
2018-11-07T17:31:20.906Z,8.20
2018-11-07T17:36:24.596Z,7.20
2018-11-07T17:41:28.306Z,6.47
2018-11-07T17:46:32.135Z,7.00
2018-11-07T17:51:36.246Z,7.40
2018-11-07T17:56:40.717Z,7.47
2018-11-07T18:01:44.334Z,7.80
2018-11-07T18:06:48.040Z,14.30
2018-11-07T18:11:52.478Z,8.20
2018-11-07T18:16:56.444Z,6.83
2018-11-07T18:22:00.227Z,6.20
2018-11-07T18:27:04.118Z,8.90
2018-11-07T18:32:07.774Z,7.33
2018-11-07T18:37:12.038Z,7.07
2018-11-07T18:42:15.631Z,7.80
2018-11-07T18:47:19.195Z,7.77
2018-11-07T18:52:23.714Z,8.00
2018-11-07T18:57:27.284Z,8.30
2018-11-07T19:02:30.919Z,8.67
2018-11-07T19:07:35.063Z,12.37
2018-11-07T19:12:38.922Z,10.87
2018-11-07T19:17:43.699Z,9.27
2018-11-07T19:22:47.472Z,9.40
2018-11-07T19:27:52.025Z,8.30
2018-11-07T19:32:55.800Z,8.03
2018-11-07T19:37:59.924Z,8.13
2018-11-07T19:43:03.706Z,7.50
2018-11-07T19:48:07.651Z,7.70
2018-11-07T19:53:12.198Z,7.57
2018-11-07T19:58:16.603Z,9.10
2018-11-07T20:03:24.526Z,19.37
2018-11-07T20:08:28.176Z,11.20
2018-11-07T20:13:32.147Z,11.00
2018-11-07T20:18:36.357Z,9.13
2018-11-07T20:23:41.218Z,8.90
2018-11-07T20:28:45.033Z,9.00
2018-11-07T20:33:48.615Z,9.00
2018-11-07T20:38:52.165Z,8.70
2018-11-07T20:43:56.276Z,10.40
2018-11-07T20:49:00.247Z,10.83
2018-11-07T20:54:04.484Z,9.00
2018-11-07T20:59:08.028Z,7.73
2018-11-07T21:04:12.695Z,7.40
2018-11-07T21:09:16.555Z,7.27
2018-11-07T21:14:20.228Z,7.17
2018-11-07T21:19:24.555Z,6.83
2018-11-07T21:24:28.453Z,6.90
2018-11-07T21:29:32.946Z,7.00
2018-11-07T21:34:37.054Z,6.80
2018-11-07T21:39:40.793Z,7.60
2018-11-07T21:44:44.402Z,8.50
2018-11-07T21:49:48.555Z,10.20
2018-11-07T21:54:53.042Z,6.70
2018-11-07T21:59:56.855Z,6.67
2018-11-07T22:05:00.404Z,7.13
2018-11-07T22:10:04.593Z,6.23
2018-11-07T22:15:08.796Z,7.30
2018-11-07T22:20:18.028Z,6.60
2018-11-07T22:25:27.504Z,6.80
2018-11-07T22:30:31.064Z,6.83
2018-11-07T22:35:34.668Z,8.30
2018-11-07T22:40:38.239Z,8.07
2018-11-07T22:45:42.159Z,7.47
2018-11-07T22:50:45.746Z,6.73
2018-11-07T22:55:49.534Z,7.60
2018-11-07T23:01:02.429Z,8.77
2018-11-07T23:06:06.353Z,9.40
2018-11-07T23:11:10.278Z,10.57
2018-11-07T23:16:13.872Z,10.50
2018-11-07T23:21:17.460Z,8.43
2018-11-07T23:26:24.231Z,8.53
2018-11-07T23:31:28.963Z,9.20
2018-11-07T23:36:32.614Z,10.30
2018-11-07T23:41:36.543Z,9.40
2018-11-07T23:46:41.970Z,9.30
2018-11-07T23:51:50.440Z,8.97
2018-11-07T23:56:54.119Z,11.23
